Time,TemperatureF,DewpointF,PressureIn,WindDirection,WindDirectionDegrees,WindSpeedMPH,WindSpeedGustMPH,Humidity,HourlyPrecipIn,Conditions,Clouds,dailyrainin,SoftwareType,DateUTC
2013-03-12 00:03:00,40.0,36.0,30.13,SW,227,0.0,0.0,86,0.00,,,0.00,weatherlink.com 1.10,2013-03-12 04:03:00,
2013-03-12 00:18:00,37.6,34.0,30.12,SW,227,1.0,2.0,88,0.00,,,0.00,weatherlink.com 1.10,2013-03-12 04:18:00,
2013-03-12 00:33:00,36.5,34.0,30.12,SW,227,1.0,3.0,91,0.00,,,0.00,weatherlink.com 1.10,2013-03-12 04:33:00,
2013-03-12 00:48:00,36.5,35.0,30.11,SW,227,2.0,2.0,93,0.00,,,0.00,weatherlink.com 1.10,2013-03-12 04:48:00,
2013-03-12 01:03:00,36.3,35.0,30.11,SW,227,0.0,2.0,93,0.00,,,0.00,weatherlink.com 1.10,2013-03-12 05:03:00,
2013-03-12 01:18:00,36.1,34.0,30.11,SW,227,0.0,3.0,93,0.00,,,0.00,weatherlink.com 1.10,2013-03-12 05:18:00,
2013-03-12 01:33:00,36.3,35.0,30.11,SW,227,2.0,2.0,94,0.00,,,0.00,weatherlink.com 1.10,2013-03-12 05:33:00,
2013-03-12 01:49:00,35.8,34.0,30.11,SW,227,2.0,3.0,94,0.00,,,0.00,weatherlink.com 1.10,2013-03-12 05:49:00,
2013-03-12 02:03:00,35.9,34.0,30.11,SW,227,2.0,3.0,94,0.00,,,0.00,weatherlink.com 1.10,2013-03-12 06:03:00,
2013-03-12 02:18:00,36.2,35.0,30.11,SW,227,2.0,4.0,94,0.00,,,0.00,weatherlink.com 1.10,2013-03-12 06:18:00,
2013-03-12 02:33:00,36.7,35.0,30.10,SW,227,3.0,3.0,95,0.00,,,0.00,weatherlink.com 1.10,2013-03-12 06:33:00,
2013-03-12 02:48:00,36.7,35.0,30.10,SW,227,1.0,3.0,95,0.00,,,0.00,weatherlink.com 1.10,2013-03-12 06:48:00,
2013-03-12 03:03:00,37.1,36.0,30.09,SW,227,2.0,2.0,95,0.00,,,0.00,weatherlink.com 1.10,2013-03-12 07:03:00,
2013-03-12 03:18:00,36.9,36.0,30.09,SW,227,2.0,4.0,95,0.00,,,0.00,weatherlink.com 1.10,2013-03-12 07:18:00,
2013-03-12 03:33:00,37.4,36.0,30.08,SW,227,0.0,3.0,95,0.00,,,0.00,weatherlink.com 1.10,2013-03-12 07:33:00,
2013-03-12 03:48:00,38.0,37.0,30.07,SW,227,0.0,0.0,95,0.00,,,0.00,weatherlink.com 1.10,2013-03-12 07:48:00,
2013-03-12 04:03:00,38.6,37.0,30.07,SW,227,0.0,0.0,95,0.00,,,0.00,weatherlink.com 1.10,2013-03-12 08:03:00,
2013-03-12 04:18:00,38.0,37.0,30.07,SW,227,3.0,3.0,94,0.00,,,0.00,weatherlink.com 1.10,2013-03-12 08:18:00,
2013-03-12 04:33:00,37.9,37.0,30.07,SW,227,0.0,2.0,95,0.00,,,0.00,weatherlink.com 1.10,2013-03-12 08:33:00,
2013-03-12 04:48:00,38.6,37.0,30.05,SW,227,0.0,3.0,95,0.00,,,0.00,weatherlink.com 1.10,2013-03-12 08:48:00,
2013-03-12 05:03:00,40.4,40.0,30.05,SW,227,0.0,2.0,97,0.00,,,0.00,weatherlink.com 1.10,2013-03-12 09:03:00,
2013-03-12 05:18:00,41.5,41.0,30.05,SW,227,0.0,1.0,96,0.00,,,0.00,weatherlink.com 1.10,2013-03-12 09:18:00,
2013-03-12 05:33:00,41.1,40.0,30.05,SW,227,1.0,1.0,95,0.00,,,0.00,weatherlink.com 1.10,2013-03-12 09:33:00,
2013-03-12 05:48:00,39.8,39.0,30.05,SW,227,0.0,0.0,96,0.00,,,0.00,weatherlink.com 1.10,2013-03-12 09:48:00,
2013-03-12 06:03:00,39.6,38.0,30.05,SW,227,0.0,2.0,95,0.00,,,0.00,weatherlink.com 1.10,2013-03-12 10:03:00,
2013-03-12 06:18:00,40.8,40.0,30.04,SW,220,0.0,3.0,97,0.00,,,0.00,weatherlink.com 1.10,2013-03-12 10:18:00,
2013-03-12 06:33:00,42.0,41.0,30.05,SW,220,0.0,0.0,97,0.00,,,0.00,weatherlink.com 1.10,2013-03-12 10:33:00,
2013-03-12 06:48:00,40.8,40.0,30.05,SW,220,0.0,1.0,95,0.00,,,0.00,weatherlink.com 1.10,2013-03-12 10:48:00,
2013-03-12 07:03:00,41.5,41.0,30.05,SW,220,0.0,2.0,97,0.00,,,0.00,weatherlink.com 1.10,2013-03-12 11:03:00,
2013-03-12 07:18:00,42.7,42.0,30.05,SW,220,0.0,2.0,97,0.00,,,0.00,weatherlink.com 1.10,2013-03-12 11:18:00,
2013-03-12 07:33:00,41.0,40.0,30.05,SW,220,0.0,1.0,95,0.00,,,0.00,weatherlink.com 1.10,2013-03-12 11:33:00,
2013-03-12 07:48:00,41.5,41.0,30.04,SW,220,0.0,1.0,96,0.00,,,0.00,weatherlink.com 1.10,2013-03-12 11:48:00,
2013-03-12 08:03:00,41.5,41.0,30.03,SW,220,0.0,2.0,96,0.00,,,0.00,weatherlink.com 1.10,2013-03-12 12:03:00,
2013-03-12 08:18:00,42.7,42.0,30.04,SW,220,1.0,1.0,97,0.00,,,0.00,weatherlink.com 1.10,2013-03-12 12:18:00,
2013-03-12 08:33:00,43.2,42.0,30.03,SW,219,0.0,1.0,97,0.00,,,0.00,weatherlink.com 1.10,2013-03-12 12:33:00,
2013-03-12 08:48:00,42.1,41.0,30.03,SW,220,0.0,0.0,96,0.00,,,0.00,weatherlink.com 1.10,2013-03-12 12:48:00,
2013-03-12 09:04:00,42.4,42.0,30.02,SW,220,0.0,0.0,97,0.00,,,0.00,weatherlink.com 1.10,2013-03-12 13:04:00,
2013-03-12 09:19:00,43.7,43.0,30.02,SW,220,1.0,2.0,97,0.00,,,0.00,weatherlink.com 1.10,2013-03-12 13:19:00,
2013-03-12 09:34:00,44.1,43.0,30.02,SW,220,0.0,0.0,97,0.01,,,0.01,weatherlink.com 1.10,2013-03-12 13:34:00,
2013-03-12 09:49:00,44.3,44.0,30.03,SW,219,0.0,1.0,97,0.01,,,0.01,weatherlink.com 1.10,2013-03-12 13:49:00,
2013-03-12 10:04:00,44.7,44.0,30.02,SW,220,0.0,1.0,97,0.03,,,0.03,weatherlink.com 1.10,2013-03-12 14:04:00,
2013-03-12 10:19:00,45.2,44.0,30.01,SW,220,0.0,4.0,97,0.04,,,0.04,weatherlink.com 1.10,2013-03-12 14:19:00,
2013-03-12 10:34:00,45.9,45.0,30.01,SW,235,4.0,4.0,97,0.04,,,0.05,weatherlink.com 1.10,2013-03-12 14:34:00,
2013-03-12 10:49:00,46.3,46.0,30.00,WSW,237,1.0,2.0,97,0.04,,,0.05,weatherlink.com 1.10,2013-03-12 14:49:00,
2013-03-12 11:04:00,46.9,46.0,30.00,SW,214,0.0,3.0,97,0.02,,,0.05,weatherlink.com 1.10,2013-03-12 15:04:00,
2013-03-12 11:19:00,47.4,47.0,29.99,South,176,1.0,5.0,97,0.01,,,0.05,weatherlink.com 1.10,2013-03-12 15:19:00,
2013-03-12 11:34:00,47.7,47.0,29.98,South,181,4.0,5.0,97,0.00,,,0.05,weatherlink.com 1.10,2013-03-12 15:34:00,
2013-03-12 11:49:00,48.0,47.0,29.97,South,190,1.0,7.0,97,0.00,,,0.05,weatherlink.com 1.10,2013-03-12 15:49:00,
2013-03-12 12:04:00,48.5,48.0,29.97,SE,124,1.0,8.0,97,0.00,,,0.05,weatherlink.com 1.10,2013-03-12 16:04:00,
2013-03-12 12:19:00,48.9,48.0,29.97,South,181,2.0,7.0,97,0.00,,,0.05,weatherlink.com 1.10,2013-03-12 16:19:00,
2013-03-12 12:34:00,49.2,48.0,29.96,South,186,1.0,3.0,97,0.00,,,0.05,weatherlink.com 1.10,2013-03-12 16:34:00,
2013-03-12 12:49:00,49.4,48.0,29.95,SSE,164,0.0,3.0,96,0.02,,,0.07,weatherlink.com 1.10,2013-03-12 16:49:00,
2013-03-12 13:04:00,49.3,48.0,29.94,SSW,207,1.0,5.0,96,0.02,,,0.07,weatherlink.com 1.10,2013-03-12 17:04:00,
2013-03-12 13:19:00,49.2,48.0,29.94,SSW,192,3.0,3.0,96,0.02,,,0.07,weatherlink.com 1.10,2013-03-12 17:19:00,
2013-03-12 13:34:00,49.6,49.0,29.93,SSW,206,3.0,5.0,97,0.03,,,0.08,weatherlink.com 1.10,2013-03-12 17:34:00,
2013-03-12 13:49:00,49.9,49.0,29.92,South,186,1.0,6.0,96,0.01,,,0.08,weatherlink.com 1.10,2013-03-12 17:49:00,
2013-03-12 14:04:00,50.2,49.0,29.92,SSW,210,5.0,6.0,96,0.01,,,0.08,weatherlink.com 1.10,2013-03-12 18:04:00,
2013-03-12 14:19:00,49.8,49.0,29.91,SSW,208,1.0,7.0,95,0.01,,,0.08,weatherlink.com 1.10,2013-03-12 18:19:00,
2013-03-12 14:34:00,49.9,49.0,29.89,South,191,0.0,4.0,96,0.00,,,0.08,weatherlink.com 1.10,2013-03-12 18:34:00,
2013-03-12 14:49:00,50.2,49.0,29.88,SSW,208,1.0,6.0,96,0.00,,,0.08,weatherlink.com 1.10,2013-03-12 18:49:00,
2013-03-12 15:04:00,50.9,50.0,29.88,South,181,2.0,4.0,97,0.01,,,0.09,weatherlink.com 1.10,2013-03-12 19:04:00,
2013-03-12 15:19:00,51.3,50.0,29.87,SSW,204,3.0,8.0,96,0.01,,,0.09,weatherlink.com 1.10,2013-03-12 19:19:00,
2013-03-12 15:35:00,51.5,50.0,29.86,South,189,5.0,7.0,96,0.03,,,0.11,weatherlink.com 1.10,2013-03-12 19:35:00,
2013-03-12 15:50:00,51.5,50.0,29.86,SW,227,4.0,7.0,96,0.04,,,0.12,weatherlink.com 1.10,2013-03-12 19:50:00,
2013-03-12 16:05:00,51.5,50.0,29.85,SSW,198,3.0,8.0,95,0.04,,,0.13,weatherlink.com 1.10,2013-03-12 20:05:00,
2013-03-12 16:20:00,51.7,51.0,29.84,South,189,1.0,9.0,96,0.05,,,0.14,weatherlink.com 1.10,2013-03-12 20:20:00,
2013-03-12 16:35:00,51.9,51.0,29.84,South,176,4.0,11.0,96,0.04,,,0.15,weatherlink.com 1.10,2013-03-12 20:35:00,
2013-03-12 16:50:00,51.9,51.0,29.83,South,191,8.0,11.0,96,0.03,,,0.15,weatherlink.com 1.10,2013-03-12 20:50:00,
2013-03-12 17:05:00,51.8,51.0,29.82,SSW,202,3.0,9.0,95,0.02,,,0.15,weatherlink.com 1.10,2013-03-12 21:05:00,
2013-03-12 17:20:00,51.5,50.0,29.81,SSE,164,0.0,10.0,95,0.03,,,0.17,weatherlink.com 1.10,2013-03-12 21:20:00,
2013-03-12 17:35:00,51.2,50.0,29.81,South,188,4.0,10.0,95,0.03,,,0.18,weatherlink.com 1.10,2013-03-12 21:35:00,
2013-03-12 17:50:00,51.2,50.0,29.80,South,181,6.0,12.0,95,0.04,,,0.19,weatherlink.com 1.10,2013-03-12 21:50:00,
2013-03-12 18:05:00,51.1,50.0,29.79,NNE,12,1.0,14.0,96,0.04,,,0.19,weatherlink.com 1.10,2013-03-12 22:05:00,
2013-03-12 18:20:00,51.0,50.0,29.78,SW,228,4.0,10.0,95,0.03,,,0.20,weatherlink.com 1.10,2013-03-12 22:20:00,
2013-03-12 18:35:00,51.0,50.0,29.78,South,187,3.0,10.0,96,0.04,,,0.22,weatherlink.com 1.10,2013-03-12 22:35:00,
2013-03-12 18:50:00,51.0,50.0,29.77,SSW,204,2.0,11.0,96,0.05,,,0.24,weatherlink.com 1.10,2013-03-12 22:50:00,
2013-03-12 19:05:00,50.8,50.0,29.77,SSW,193,5.0,10.0,96,0.09,,,0.28,weatherlink.com 1.10,2013-03-12 23:05:00,
2013-03-12 19:20:00,50.8,50.0,29.76,South,185,4.0,10.0,96,0.11,,,0.31,weatherlink.com 1.10,2013-03-12 23:20:00,
2013-03-12 19:35:00,50.7,50.0,29.75,SW,235,2.0,8.0,96,0.12,,,0.34,weatherlink.com 1.10,2013-03-12 23:35:00,
2013-03-12 19:50:00,50.8,50.0,29.74,SSW,212,2.0,8.0,96,0.12,,,0.37,weatherlink.com 1.10,2013-03-12 23:50:00,
2013-03-12 20:05:00,50.6,50.0,29.72,SSW,192,3.0,5.0,96,0.10,,,0.38,weatherlink.com 1.10,2013-03-13 00:05:00,
2013-03-12 20:20:00,50.6,50.0,29.71,South,189,3.0,6.0,96,0.09,,,0.40,weatherlink.com 1.10,2013-03-13 00:20:00,
2013-03-12 20:35:00,50.7,50.0,29.70,South,188,2.0,7.0,96,0.08,,,0.42,weatherlink.com 1.10,2013-03-13 00:35:00,
2013-03-12 20:50:00,50.8,50.0,29.70,SSE,167,4.0,9.0,96,0.05,,,0.42,weatherlink.com 1.10,2013-03-13 00:50:00,
2013-03-12 21:05:00,50.3,49.0,29.70,SSE,151,1.0,5.0,96,0.03,,,0.42,weatherlink.com 1.10,2013-03-13 01:05:00,
2013-03-12 21:20:00,50.2,49.0,29.70,South,181,0.0,3.0,96,0.03,,,0.43,weatherlink.com 1.10,2013-03-13 01:20:00,
2013-03-12 21:35:00,49.6,49.0,29.70,South,181,0.0,2.0,97,0.01,,,0.43,weatherlink.com 1.10,2013-03-13 01:35:00,
2013-03-12 21:50:00,49.5,49.0,29.70,South,181,0.0,2.0,97,0.01,,,0.43,weatherlink.com 1.10,2013-03-13 01:50:00,
2013-03-12 22:05:00,49.1,48.0,29.70,West,261,0.0,2.0,97,0.00,,,0.43,weatherlink.com 1.10,2013-03-13 02:05:00,
2013-03-12 22:20:00,49.5,49.0,29.70,SW,233,2.0,7.0,97,0.00,,,0.43,weatherlink.com 1.10,2013-03-13 02:20:00,
2013-03-12 22:35:00,49.5,48.0,29.70,SW,215,0.0,3.0,96,0.00,,,0.43,weatherlink.com 1.10,2013-03-13 02:35:00,
2013-03-12 22:50:00,44.9,44.0,29.70,SW,215,0.0,3.0,95,0.00,,,0.43,weatherlink.com 1.10,2013-03-13 02:50:00,
2013-03-12 23:05:00,44.6,44.0,29.70,SW,215,0.0,1.0,97,0.00,,,0.43,weatherlink.com 1.10,2013-03-13 03:05:00,
2013-03-12 23:20:00,43.9,43.0,29.70,SE,125,0.0,2.0,96,0.00,,,0.43,weatherlink.com 1.10,2013-03-13 03:20:00,
2013-03-12 23:35:00,42.9,42.0,29.70,ESE,108,0.0,4.0,96,0.00,,,0.43,weatherlink.com 1.10,2013-03-13 03:35:00,
2013-03-12 23:50:00,46.9,46.0,29.71,WSW,247,1.0,7.0,98,0.00,,,0.43,weatherlink.com 1.10,2013-03-13 03:50:00,